GIA633 WAMM-WARR
Flight info
| Callsign | GIA633 |
|---|---|
| Flight time | N/A |
| Altitude | 36000 |
| Route | LUANG W32 SUSIL W32N KOLTA |
| Aircraft | B38M/M-SDE1FGHILORVWXY/HB1 |
Departure
| Time | N/A |
|---|---|
| Airport | Sam Ratulangi International Airport (WAMM) |
Arrival
| Time | 2026-05-05 03:57 |
|---|---|
| Airport | Juanda International Airport (WARR) |
| Time | Latitude | Longitude | Altitude | Speed | Heading |
|---|---|---|---|---|---|
| 2026-05-05 01:48 | 1.08030 | 124.47716 | 21240 ft | 424 kts | 211° |
| 2026-05-05 01:49 | 1.05554 | 124.46171 | 21590 ft | 426 kts | 211° |
| 2026-05-05 01:49 | 1.03027 | 124.44592 | 21940 ft | 429 kts | 211° |
| 2026-05-05 01:49 | 1.00496 | 124.43012 | 22275 ft | 431 kts | 211° |
| 2026-05-05 01:49 | 0.97946 | 124.41421 | 22602 ft | 433 kts | 211° |
| 2026-05-05 01:50 | 0.95383 | 124.39823 | 22926 ft | 435 kts | 211° |
| 2026-05-05 01:50 | 0.92801 | 124.38211 | 23258 ft | 437 kts | 211° |
| 2026-05-05 01:50 | 0.90214 | 124.36598 | 23563 ft | 440 kts | 211° |
| 2026-05-05 01:50 | 0.87610 | 124.34972 | 23831 ft | 442 kts | 211° |
| 2026-05-05 01:51 | 0.84999 | 124.33342 | 24097 ft | 443 kts | 211° |
| 2026-05-05 01:51 | 0.82376 | 124.31706 | 24371 ft | 445 kts | 211° |
| 2026-05-05 01:51 | 0.79748 | 124.30067 | 24634 ft | 447 kts | 211° |
| 2026-05-05 01:51 | 0.77109 | 124.28421 | 24889 ft | 448 kts | 211° |
| 2026-05-05 01:52 | 0.74461 | 124.26769 | 25154 ft | 450 kts | 211° |
| 2026-05-05 01:52 | 0.71799 | 124.25109 | 25417 ft | 451 kts | 211° |
| 2026-05-05 01:52 | 0.69132 | 124.23446 | 25667 ft | 453 kts | 211° |
| 2026-05-05 01:52 | 0.66443 | 124.21768 | 25927 ft | 455 kts | 211° |
| 2026-05-05 01:53 | 0.63794 | 124.20116 | 26166 ft | 456 kts | 211° |
| 2026-05-05 01:53 | 0.61097 | 124.18434 | 26431 ft | 458 kts | 211° |
| 2026-05-05 01:53 | 0.58393 | 124.16748 | 26662 ft | 460 kts | 211° |
| 2026-05-05 01:53 | 0.55675 | 124.15054 | 26923 ft | 461 kts | 211° |
| 2026-05-05 01:54 | 0.52958 | 124.13360 | 27156 ft | 463 kts | 211° |
| 2026-05-05 01:54 | 0.50221 | 124.11655 | 27381 ft | 464 kts | 211° |
| 2026-05-05 01:54 | 0.47472 | 124.09940 | 27619 ft | 466 kts | 211° |
| 2026-05-05 01:54 | 0.44715 | 124.08222 | 27840 ft | 468 kts | 211° |
| 2026-05-05 01:55 | 0.41934 | 124.06489 | 28092 ft | 469 kts | 211° |
| 2026-05-05 01:55 | 0.39163 | 124.04761 | 28312 ft | 471 kts | 211° |
| 2026-05-05 01:55 | 0.36382 | 124.03029 | 28525 ft | 473 kts | 211° |
| 2026-05-05 01:55 | 0.33621 | 124.01308 | 28745 ft | 474 kts | 211° |
| 2026-05-05 01:56 | 0.30815 | 123.99560 | 28960 ft | 476 kts | 211° |
| 2026-05-05 01:56 | 0.27999 | 123.97805 | 29175 ft | 477 kts | 211° |
| 2026-05-05 01:56 | 0.25174 | 123.96045 | 29372 ft | 479 kts | 211° |
| 2026-05-05 01:56 | 0.22337 | 123.94278 | 29578 ft | 480 kts | 211° |
| 2026-05-05 01:57 | 0.19493 | 123.92505 | 29773 ft | 482 kts | 211° |
| 2026-05-05 01:57 | 0.16644 | 123.90730 | 29966 ft | 483 kts | 211° |
| 2026-05-05 01:57 | 0.13798 | 123.88957 | 30139 ft | 485 kts | 211° |
| 2026-05-05 01:57 | 0.10928 | 123.87170 | 30337 ft | 485 kts | 211° |
| 2026-05-05 01:58 | 0.08067 | 123.85383 | 30573 ft | 485 kts | 212° |
| 2026-05-05 01:58 | 0.05436 | 123.83283 | 30835 ft | 485 kts | 221° |
| 2026-05-05 01:58 | 0.02913 | 123.81034 | 31061 ft | 485 kts | 220° |
| 2026-05-05 01:58 | 0.00415 | 123.78834 | 31312 ft | 485 kts | 220° |
| 2026-05-05 01:59 | -0.02111 | 123.76602 | 31556 ft | 484 kts | 220° |
| 2026-05-05 01:59 | -0.04622 | 123.74381 | 31810 ft | 484 kts | 220° |
| 2026-05-05 01:59 | -0.07144 | 123.72149 | 32068 ft | 483 kts | 220° |
| 2026-05-05 01:59 | -0.09660 | 123.69922 | 32314 ft | 483 kts | 220° |
| 2026-05-05 02:00 | -0.14781 | 123.65383 | 31821 ft | 503 kts | 220° |
| 2026-05-05 02:00 | -0.17377 | 123.63078 | 32207 ft | 494 kts | 220° |
| 2026-05-05 02:00 | -0.19945 | 123.60810 | 32581 ft | 489 kts | 220° |
| 2026-05-05 02:01 | -0.22489 | 123.58567 | 32920 ft | 486 kts | 220° |
| 2026-05-05 02:01 | -0.25014 | 123.56335 | 33236 ft | 484 kts | 220° |
| 2026-05-05 02:01 | -0.27528 | 123.54110 | 33535 ft | 482 kts | 220° |
| 2026-05-05 02:01 | -0.30034 | 123.51892 | 33829 ft | 481 kts | 220° |
| 2026-05-05 02:02 | -0.32538 | 123.49676 | 34098 ft | 480 kts | 220° |
| 2026-05-05 02:02 | -0.35001 | 123.47497 | 34363 ft | 478 kts | 220° |
| 2026-05-05 02:02 | -0.37485 | 123.45299 | 34621 ft | 476 kts | 220° |
| 2026-05-05 02:02 | -0.39965 | 123.43104 | 34846 ft | 476 kts | 220° |
| 2026-05-05 02:03 | -0.42438 | 123.40916 | 35065 ft | 475 kts | 220° |
| 2026-05-05 02:03 | -0.44940 | 123.38701 | 35288 ft | 474 kts | 220° |
| 2026-05-05 02:03 | -0.47375 | 123.36546 | 35507 ft | 474 kts | 220° |
| 2026-05-05 02:03 | -0.49840 | 123.34365 | 35721 ft | 473 kts | 220° |
| 2026-05-05 02:04 | -0.52310 | 123.32179 | 35909 ft | 473 kts | 220° |
| 2026-05-05 02:04 | -0.54776 | 123.29997 | 35932 ft | 472 kts | 220° |
| 2026-05-05 02:04 | -0.59675 | 123.25661 | 35930 ft | 470 kts | 220° |
| 2026-05-05 02:05 | -0.64565 | 123.21333 | 35921 ft | 470 kts | 220° |
| 2026-05-05 02:05 | -0.69469 | 123.16992 | 35923 ft | 470 kts | 220° |
| 2026-05-05 02:06 | -0.74328 | 123.12692 | 35933 ft | 471 kts | 220° |
| 2026-05-05 02:06 | -0.79234 | 123.08350 | 35933 ft | 471 kts | 220° |
| 2026-05-05 02:07 | -0.84151 | 123.03997 | 35930 ft | 471 kts | 220° |
| 2026-05-05 02:07 | -0.89068 | 122.99671 | 35934 ft | 471 kts | 219° |
| 2026-05-05 02:08 | -0.94031 | 122.95397 | 35935 ft | 471 kts | 219° |
| 2026-05-05 02:08 | -0.98145 | 122.91846 | 35943 ft | 470 kts | 219° |
| 2026-05-05 02:09 | -1.03088 | 122.87578 | 35941 ft | 470 kts | 219° |
| 2026-05-05 02:09 | -1.08042 | 122.83300 | 35949 ft | 469 kts | 219° |
| 2026-05-05 02:10 | -1.12984 | 122.79034 | 35950 ft | 469 kts | 219° |
| 2026-05-05 02:10 | -1.17920 | 122.74771 | 35947 ft | 469 kts | 219° |
| 2026-05-05 02:11 | -1.22837 | 122.70525 | 35955 ft | 469 kts | 219° |
| 2026-05-05 02:11 | -1.27781 | 122.66255 | 35956 ft | 469 kts | 219° |
| 2026-05-05 02:12 | -1.35196 | 122.59852 | 35950 ft | 470 kts | 219° |
| 2026-05-05 02:13 | -1.40145 | 122.55577 | 35950 ft | 470 kts | 219° |
| 2026-05-05 02:13 | -1.45101 | 122.51297 | 35939 ft | 470 kts | 219° |
| 2026-05-05 02:14 | -1.50056 | 122.47017 | 35941 ft | 470 kts | 219° |
| 2026-05-05 02:14 | -1.55000 | 122.42747 | 35933 ft | 470 kts | 219° |
| 2026-05-05 02:15 | -1.59951 | 122.38469 | 35938 ft | 470 kts | 219° |
| 2026-05-05 02:15 | -1.64879 | 122.34211 | 35940 ft | 470 kts | 219° |
| 2026-05-05 02:16 | -1.69818 | 122.29944 | 35934 ft | 469 kts | 219° |
| 2026-05-05 02:16 | -1.74749 | 122.25683 | 35933 ft | 469 kts | 219° |
| 2026-05-05 02:17 | -1.79683 | 122.21420 | 35933 ft | 469 kts | 219° |
| 2026-05-05 02:17 | -1.84622 | 122.17151 | 35930 ft | 469 kts | 219° |
| 2026-05-05 02:18 | -1.89561 | 122.12883 | 35930 ft | 469 kts | 219° |
| 2026-05-05 02:18 | -1.94459 | 122.08650 | 35929 ft | 469 kts | 219° |
| 2026-05-05 02:19 | -1.99403 | 122.04376 | 35928 ft | 470 kts | 219° |
| 2026-05-05 02:19 | -2.04347 | 122.00102 | 35928 ft | 470 kts | 219° |
| 2026-05-05 02:20 | -2.09295 | 121.95824 | 35934 ft | 470 kts | 219° |
| 2026-05-05 02:20 | -2.14233 | 121.91555 | 35930 ft | 470 kts | 219° |
| 2026-05-05 02:21 | -2.19180 | 121.87277 | 35933 ft | 470 kts | 219° |
| 2026-05-05 02:21 | -2.24124 | 121.83001 | 35942 ft | 470 kts | 219° |
| 2026-05-05 02:22 | -2.29065 | 121.78728 | 35940 ft | 470 kts | 219° |
| 2026-05-05 02:22 | -2.33971 | 121.74485 | 35946 ft | 469 kts | 219° |
| 2026-05-05 02:23 | -2.38919 | 121.70205 | 35951 ft | 469 kts | 219° |
| 2026-05-05 02:23 | -2.43933 | 121.66024 | 35954 ft | 469 kts | 218° |
| 2026-05-05 02:24 | -2.48988 | 121.61884 | 35960 ft | 469 kts | 218° |
| 2026-05-05 02:24 | -2.54026 | 121.57750 | 35962 ft | 469 kts | 218° |
| 2026-05-05 02:25 | -2.59081 | 121.53601 | 35959 ft | 469 kts | 218° |
| 2026-05-05 02:25 | -2.64104 | 121.49478 | 35958 ft | 470 kts | 218° |
| 2026-05-05 02:26 | -2.69154 | 121.45332 | 35954 ft | 470 kts | 218° |
| 2026-05-05 02:26 | -2.74223 | 121.41170 | 35965 ft | 470 kts | 218° |
| 2026-05-05 02:27 | -2.79281 | 121.37017 | 35956 ft | 470 kts | 218° |
| 2026-05-05 02:27 | -2.84303 | 121.32892 | 35957 ft | 470 kts | 218° |
| 2026-05-05 02:28 | -2.89357 | 121.28742 | 35954 ft | 470 kts | 218° |
| 2026-05-05 02:28 | -2.94416 | 121.24586 | 35959 ft | 470 kts | 218° |
| 2026-05-05 02:29 | -2.99468 | 121.20436 | 35959 ft | 470 kts | 218° |
| 2026-05-05 02:29 | -3.04520 | 121.16285 | 35961 ft | 470 kts | 218° |
| 2026-05-05 02:30 | -3.09544 | 121.12158 | 35958 ft | 470 kts | 218° |
| 2026-05-05 02:30 | -3.14610 | 121.08010 | 35960 ft | 470 kts | 218° |
| 2026-05-05 02:31 | -3.19667 | 121.03867 | 35952 ft | 470 kts | 218° |
| 2026-05-05 02:31 | -3.24742 | 120.99710 | 35950 ft | 470 kts | 218° |
| 2026-05-05 02:32 | -3.29809 | 120.95558 | 35949 ft | 468 kts | 218° |
| 2026-05-05 02:32 | -3.34823 | 120.91450 | 35945 ft | 464 kts | 218° |
| 2026-05-05 02:33 | -3.39794 | 120.87376 | 35941 ft | 465 kts | 218° |
| 2026-05-05 02:33 | -3.44796 | 120.83277 | 35946 ft | 465 kts | 218° |
| 2026-05-05 02:34 | -3.49807 | 120.79169 | 35946 ft | 465 kts | 218° |
| 2026-05-05 02:34 | -3.54812 | 120.75066 | 35943 ft | 465 kts | 218° |
| 2026-05-05 02:35 | -3.59817 | 120.70961 | 35927 ft | 465 kts | 218° |
| 2026-05-05 02:35 | -3.64822 | 120.66856 | 35930 ft | 465 kts | 218° |
| 2026-05-05 02:36 | -3.69823 | 120.62754 | 35930 ft | 465 kts | 218° |
| 2026-05-05 02:36 | -3.74840 | 120.58639 | 35928 ft | 465 kts | 218° |
| 2026-05-05 02:37 | -3.79814 | 120.54558 | 35926 ft | 465 kts | 218° |
| 2026-05-05 02:37 | -3.84827 | 120.50444 | 35925 ft | 465 kts | 218° |
| 2026-05-05 02:38 | -3.89836 | 120.46332 | 35927 ft | 465 kts | 218° |
| 2026-05-05 02:38 | -3.94848 | 120.42218 | 35928 ft | 465 kts | 219° |
| 2026-05-05 02:39 | -3.99857 | 120.38106 | 35924 ft | 464 kts | 218° |
| 2026-05-05 02:39 | -4.04836 | 120.34017 | 35924 ft | 464 kts | 218° |
| 2026-05-05 02:40 | -4.09831 | 120.29915 | 35921 ft | 464 kts | 218° |
| 2026-05-05 02:40 | -4.14792 | 120.25840 | 35921 ft | 464 kts | 218° |
| 2026-05-05 02:41 | -4.19786 | 120.21737 | 35924 ft | 464 kts | 218° |
| 2026-05-05 02:41 | -4.24772 | 120.17640 | 35922 ft | 464 kts | 218° |
| 2026-05-05 02:42 | -4.29764 | 120.13537 | 35925 ft | 464 kts | 218° |
| 2026-05-05 02:42 | -4.34743 | 120.09444 | 35915 ft | 462 kts | 218° |
| 2026-05-05 02:43 | -4.39686 | 120.05382 | 35920 ft | 463 kts | 219° |
| 2026-05-05 02:43 | -4.44670 | 120.01284 | 35925 ft | 463 kts | 218° |
| 2026-05-05 02:44 | -4.49651 | 119.97186 | 35936 ft | 462 kts | 218° |
| 2026-05-05 02:44 | -4.54630 | 119.93091 | 35926 ft | 463 kts | 218° |
| 2026-05-05 02:45 | -4.59574 | 119.89023 | 35922 ft | 463 kts | 218° |
| 2026-05-05 02:45 | -4.64546 | 119.84932 | 35925 ft | 462 kts | 218° |
| 2026-05-05 02:46 | -4.69517 | 119.80841 | 35917 ft | 462 kts | 218° |
| 2026-05-05 02:46 | -4.74490 | 119.76747 | 35917 ft | 463 kts | 218° |
| 2026-05-05 02:47 | -4.79468 | 119.72649 | 35919 ft | 463 kts | 218° |
| 2026-05-05 02:47 | -4.84438 | 119.68556 | 35905 ft | 463 kts | 218° |
| 2026-05-05 02:48 | -4.89386 | 119.64480 | 35911 ft | 463 kts | 218° |
| 2026-05-05 02:48 | -4.94363 | 119.60381 | 35912 ft | 463 kts | 218° |
| 2026-05-05 02:49 | -4.99333 | 119.56285 | 35912 ft | 462 kts | 218° |
| 2026-05-05 02:49 | -5.03750 | 119.51656 | 35899 ft | 462 kts | 240° |
| 2026-05-05 02:50 | -5.06235 | 119.45674 | 35888 ft | 467 kts | 248° |
| 2026-05-05 02:50 | -5.08508 | 119.39581 | 35910 ft | 467 kts | 249° |
| 2026-05-05 02:51 | -5.10736 | 119.33464 | 35902 ft | 467 kts | 249° |
| 2026-05-05 02:51 | -5.12941 | 119.27389 | 35897 ft | 467 kts | 249° |
| 2026-05-05 02:52 | -5.15163 | 119.21266 | 35898 ft | 467 kts | 249° |
| 2026-05-05 02:52 | -5.17023 | 119.16136 | 35898 ft | 467 kts | 249° |
| 2026-05-05 02:53 | -5.19229 | 119.10051 | 35903 ft | 467 kts | 249° |
| 2026-05-05 02:53 | -5.21447 | 119.03930 | 35903 ft | 467 kts | 249° |
| 2026-05-05 02:54 | -5.23669 | 118.97798 | 35913 ft | 467 kts | 249° |
| 2026-05-05 02:54 | -5.25888 | 118.91671 | 35912 ft | 467 kts | 249° |
| 2026-05-05 02:55 | -5.28106 | 118.85545 | 35911 ft | 468 kts | 249° |
| 2026-05-05 02:55 | -5.30325 | 118.79414 | 35910 ft | 467 kts | 249° |
| 2026-05-05 02:56 | -5.32543 | 118.73282 | 35908 ft | 467 kts | 249° |
| 2026-05-05 02:56 | -5.34763 | 118.67144 | 35909 ft | 467 kts | 249° |
| 2026-05-05 02:57 | -5.36964 | 118.61057 | 35910 ft | 467 kts | 248° |
| 2026-05-05 02:57 | -5.39181 | 118.54924 | 35912 ft | 467 kts | 248° |
| 2026-05-05 02:58 | -5.41397 | 118.48789 | 35907 ft | 467 kts | 249° |
| 2026-05-05 02:58 | -5.43612 | 118.42657 | 35909 ft | 467 kts | 249° |
| 2026-05-05 02:59 | -5.45822 | 118.36535 | 35909 ft | 467 kts | 249° |
| 2026-05-05 02:59 | -5.48035 | 118.30406 | 35909 ft | 468 kts | 249° |
| 2026-05-05 03:00 | -5.50239 | 118.24297 | 35907 ft | 468 kts | 249° |
| 2026-05-05 03:00 | -5.52453 | 118.18155 | 35910 ft | 468 kts | 248° |
| 2026-05-05 03:01 | -5.54666 | 118.12021 | 35911 ft | 468 kts | 249° |
| 2026-05-05 03:01 | -5.56881 | 118.05875 | 35908 ft | 468 kts | 249° |
| 2026-05-05 03:02 | -5.59097 | 117.99722 | 35909 ft | 468 kts | 249° |
| 2026-05-05 03:02 | -5.61313 | 117.93567 | 35907 ft | 468 kts | 248° |
| 2026-05-05 03:03 | -5.63526 | 117.87420 | 35910 ft | 468 kts | 249° |
| 2026-05-05 03:03 | -5.65729 | 117.81301 | 35906 ft | 468 kts | 249° |
| 2026-05-05 03:04 | -5.67946 | 117.75135 | 35906 ft | 468 kts | 249° |
| 2026-05-05 03:04 | -5.70163 | 117.68971 | 35907 ft | 468 kts | 250° |
| 2026-05-05 03:05 | -5.72357 | 117.62870 | 35906 ft | 468 kts | 249° |
| 2026-05-05 03:05 | -5.74569 | 117.56715 | 35910 ft | 467 kts | 248° |
| 2026-05-05 03:06 | -5.76771 | 117.50584 | 35908 ft | 466 kts | 249° |
| 2026-05-05 03:06 | -5.78969 | 117.44460 | 35908 ft | 466 kts | 249° |
| 2026-05-05 03:07 | -5.81166 | 117.38343 | 35905 ft | 466 kts | 249° |
| 2026-05-05 03:07 | -5.83350 | 117.32255 | 35908 ft | 466 kts | 249° |
| 2026-05-05 03:08 | -5.85545 | 117.26136 | 35906 ft | 466 kts | 249° |
| 2026-05-05 03:08 | -5.87724 | 117.20011 | 35906 ft | 466 kts | 250° |
| 2026-05-05 03:09 | -5.89820 | 117.13852 | 35905 ft | 466 kts | 249° |
| 2026-05-05 03:09 | -5.91924 | 117.07698 | 35907 ft | 467 kts | 249° |
| 2026-05-05 03:10 | -5.94036 | 117.01524 | 35904 ft | 467 kts | 250° |
| 2026-05-05 03:10 | -5.96052 | 116.95623 | 35902 ft | 466 kts | 250° |
| 2026-05-05 03:11 | -5.98158 | 116.89461 | 35905 ft | 466 kts | 250° |
| 2026-05-05 03:11 | -6.00263 | 116.83297 | 35905 ft | 467 kts | 250° |
| 2026-05-05 03:12 | -6.02373 | 116.77118 | 35902 ft | 467 kts | 250° |
| 2026-05-05 03:12 | -6.04477 | 116.70952 | 35901 ft | 467 kts | 250° |
| 2026-05-05 03:13 | -6.06570 | 116.64814 | 35902 ft | 467 kts | 250° |
| 2026-05-05 03:13 | -6.08675 | 116.58642 | 35903 ft | 467 kts | 249° |
| 2026-05-05 03:14 | -6.10779 | 116.52468 | 35905 ft | 468 kts | 250° |
| 2026-05-05 03:14 | -6.12884 | 116.46289 | 35904 ft | 468 kts | 250° |
| 2026-05-05 03:15 | -6.14992 | 116.40098 | 35902 ft | 467 kts | 250° |
| 2026-05-05 03:15 | -6.17094 | 116.33927 | 35902 ft | 466 kts | 251° |
| 2026-05-05 03:16 | -6.19206 | 116.27761 | 35898 ft | 466 kts | 250° |
| 2026-05-05 03:16 | -6.21307 | 116.21621 | 35901 ft | 469 kts | 251° |
| 2026-05-05 03:17 | -6.23433 | 116.15404 | 35905 ft | 469 kts | 251° |
| 2026-05-05 03:17 | -6.25556 | 116.09198 | 35903 ft | 469 kts | 250° |
| 2026-05-05 03:18 | -6.27674 | 116.03000 | 35902 ft | 469 kts | 251° |
| 2026-05-05 03:18 | -6.29795 | 115.96794 | 35903 ft | 469 kts | 250° |
| 2026-05-05 03:19 | -6.32983 | 115.87457 | 35900 ft | 471 kts | 251° |
| 2026-05-05 03:19 | -6.35097 | 115.81261 | 35901 ft | 471 kts | 251° |
| 2026-05-05 03:20 | -6.37222 | 115.75034 | 35902 ft | 471 kts | 251° |
| 2026-05-05 03:20 | -6.39347 | 115.68803 | 35899 ft | 471 kts | 251° |
| 2026-05-05 03:21 | -6.41472 | 115.62568 | 35897 ft | 471 kts | 251° |
| 2026-05-05 03:21 | -6.43598 | 115.56327 | 35902 ft | 472 kts | 251° |
| 2026-05-05 03:22 | -6.45721 | 115.50092 | 35904 ft | 472 kts | 251° |
| 2026-05-05 03:22 | -6.47849 | 115.43840 | 35901 ft | 472 kts | 251° |
| 2026-05-05 03:23 | -6.49981 | 115.37576 | 35899 ft | 472 kts | 251° |
| 2026-05-05 03:23 | -6.52087 | 115.31383 | 35901 ft | 472 kts | 251° |
| 2026-05-05 03:24 | -6.54210 | 115.25139 | 35903 ft | 473 kts | 251° |
| 2026-05-05 03:24 | -6.56254 | 115.18863 | 35892 ft | 472 kts | 259° |
| 2026-05-05 03:25 | -6.57038 | 115.12322 | 35894 ft | 472 kts | 262° |
| 2026-05-05 03:25 | -6.58031 | 115.05789 | 35902 ft | 473 kts | 261° |
| 2026-05-05 03:26 | -6.59058 | 114.99270 | 35897 ft | 472 kts | 261° |
| 2026-05-05 03:26 | -6.60086 | 114.92770 | 35903 ft | 474 kts | 261° |
| 2026-05-05 03:27 | -6.61119 | 114.86230 | 35898 ft | 473 kts | 261° |
| 2026-05-05 03:27 | -6.62152 | 114.79687 | 35901 ft | 473 kts | 261° |
| 2026-05-05 03:28 | -6.63184 | 114.73142 | 35902 ft | 473 kts | 261° |
| 2026-05-05 03:28 | -6.63699 | 114.69877 | 35763 ft | 472 kts | 261° |
| 2026-05-05 03:28 | -6.64213 | 114.66611 | 35523 ft | 472 kts | 261° |
| 2026-05-05 03:29 | -6.64722 | 114.63380 | 35288 ft | 473 kts | 261° |
| 2026-05-05 03:29 | -6.65238 | 114.60104 | 35052 ft | 474 kts | 261° |
| 2026-05-05 03:29 | -6.65753 | 114.56827 | 34820 ft | 475 kts | 261° |
| 2026-05-05 03:29 | -6.66270 | 114.53542 | 34585 ft | 478 kts | 261° |
| 2026-05-05 03:30 | -6.66788 | 114.50243 | 34355 ft | 478 kts | 261° |
| 2026-05-05 03:30 | -6.67309 | 114.46931 | 34129 ft | 479 kts | 261° |
| 2026-05-05 03:30 | -6.67830 | 114.43609 | 33897 ft | 481 kts | 261° |
| 2026-05-05 03:30 | -6.68353 | 114.40280 | 33639 ft | 482 kts | 261° |
| 2026-05-05 03:31 | -6.68869 | 114.36990 | 33389 ft | 482 kts | 261° |
| 2026-05-05 03:31 | -6.69393 | 114.33651 | 33129 ft | 484 kts | 261° |
| 2026-05-05 03:31 | -6.69917 | 114.30307 | 32880 ft | 485 kts | 261° |
| 2026-05-05 03:31 | -6.70442 | 114.26957 | 32634 ft | 484 kts | 260° |
| 2026-05-05 03:32 | -6.70966 | 114.23613 | 32384 ft | 485 kts | 260° |
| 2026-05-05 03:32 | -6.71491 | 114.20258 | 32143 ft | 485 kts | 260° |
| 2026-05-05 03:32 | -6.72017 | 114.16897 | 31902 ft | 484 kts | 260° |
| 2026-05-05 03:32 | -6.72541 | 114.13546 | 31660 ft | 485 kts | 260° |
| 2026-05-05 03:33 | -6.73067 | 114.10185 | 31421 ft | 485 kts | 259° |
| 2026-05-05 03:33 | -6.73592 | 114.06822 | 31189 ft | 485 kts | 260° |
| 2026-05-05 03:33 | -6.74114 | 114.03476 | 30952 ft | 486 kts | 259° |
| 2026-05-05 03:33 | -6.74634 | 114.00150 | 30720 ft | 487 kts | 260° |
| 2026-05-05 03:34 | -6.75165 | 113.96745 | 30485 ft | 487 kts | 260° |
| 2026-05-05 03:34 | -6.75682 | 113.93426 | 30267 ft | 487 kts | 259° |
| 2026-05-05 03:34 | -6.76208 | 113.90059 | 30044 ft | 487 kts | 259° |
| 2026-05-05 03:34 | -6.76733 | 113.86691 | 29792 ft | 487 kts | 260° |
| 2026-05-05 03:35 | -6.77259 | 113.83315 | 29532 ft | 488 kts | 260° |
| 2026-05-05 03:35 | -6.77783 | 113.79949 | 29271 ft | 489 kts | 260° |
| 2026-05-05 03:35 | -6.78308 | 113.76571 | 29012 ft | 489 kts | 260° |
| 2026-05-05 03:35 | -6.78834 | 113.73191 | 28755 ft | 490 kts | 261° |
| 2026-05-05 03:36 | -6.79362 | 113.69795 | 28482 ft | 491 kts | 260° |
| 2026-05-05 03:36 | -6.79710 | 113.67555 | 27766 ft | 490 kts | 259° |
| 2026-05-05 03:36 | -6.80244 | 113.64123 | 26471 ft | 501 kts | 260° |
| 2026-05-05 03:36 | -6.80781 | 113.60663 | 25775 ft | 497 kts | 260° |
| 2026-05-05 03:37 | -6.81309 | 113.57256 | 25155 ft | 491 kts | 260° |
| 2026-05-05 03:37 | -6.81835 | 113.53868 | 24415 ft | 489 kts | 260° |
| 2026-05-05 03:37 | -6.82359 | 113.50492 | 23686 ft | 487 kts | 260° |
| 2026-05-05 03:37 | -6.82881 | 113.47125 | 22856 ft | 486 kts | 261° |
| 2026-05-05 03:38 | -6.83399 | 113.43776 | 22135 ft | 482 kts | 261° |
| 2026-05-05 03:38 | -6.83911 | 113.40467 | 21506 ft | 476 kts | 260° |
| 2026-05-05 03:38 | -6.84419 | 113.37185 | 20780 ft | 473 kts | 261° |
| 2026-05-05 03:38 | -6.84922 | 113.33938 | 20216 ft | 467 kts | 261° |
| 2026-05-05 03:39 | -6.85419 | 113.30722 | 19545 ft | 463 kts | 261° |
| 2026-05-05 03:39 | -6.85914 | 113.27521 | 18901 ft | 460 kts | 261° |
| 2026-05-05 03:39 | -6.86399 | 113.24379 | 18296 ft | 447 kts | 261° |
| 2026-05-05 03:39 | -6.86859 | 113.21403 | 17347 ft | 439 kts | 260° |
| 2026-05-05 03:40 | -6.87316 | 113.18442 | 16604 ft | 427 kts | 261° |
| 2026-05-05 03:40 | -6.87766 | 113.15526 | 15972 ft | 414 kts | 260° |
| 2026-05-05 03:40 | -6.88203 | 113.12690 | 15368 ft | 404 kts | 261° |
| 2026-05-05 03:40 | -6.88641 | 113.09856 | 14710 ft | 415 kts | 260° |
| 2026-05-05 03:41 | -6.89085 | 113.06971 | 14116 ft | 418 kts | 260° |
| 2026-05-05 03:41 | -6.89529 | 113.04084 | 13515 ft | 418 kts | 260° |
| 2026-05-05 03:41 | -6.89975 | 113.01188 | 12854 ft | 418 kts | 261° |
| 2026-05-05 03:41 | -6.90418 | 112.98306 | 12252 ft | 415 kts | 261° |
| 2026-05-05 03:42 | -6.90851 | 112.95496 | 11823 ft | 396 kts | 261° |
| 2026-05-05 03:42 | -6.91259 | 112.92840 | 11655 ft | 373 kts | 261° |
| 2026-05-05 03:42 | -6.91643 | 112.90344 | 11501 ft | 351 kts | 261° |
| 2026-05-05 03:42 | -6.92007 | 112.87976 | 11341 ft | 332 kts | 261° |
| 2026-05-05 03:43 | -6.92351 | 112.85736 | 11171 ft | 315 kts | 261° |
| 2026-05-05 03:43 | -6.92673 | 112.83640 | 11042 ft | 298 kts | 261° |
| 2026-05-05 03:43 | -6.92978 | 112.81655 | 11034 ft | 277 kts | 261° |
| 2026-05-05 03:43 | -6.93266 | 112.79781 | 11010 ft | 271 kts | 261° |
| 2026-05-05 03:44 | -6.93562 | 112.77849 | 10970 ft | 288 kts | 261° |
| 2026-05-05 03:44 | -6.93872 | 112.75830 | 10850 ft | 295 kts | 261° |
| 2026-05-05 03:44 | -6.94188 | 112.73770 | 10717 ft | 299 kts | 261° |
| 2026-05-05 03:44 | -6.94505 | 112.71701 | 10572 ft | 300 kts | 261° |
| 2026-05-05 03:45 | -6.94819 | 112.69654 | 10433 ft | 299 kts | 261° |
| 2026-05-05 03:45 | -6.95139 | 112.67567 | 10283 ft | 298 kts | 262° |
| 2026-05-05 03:45 | -6.95454 | 112.65511 | 10150 ft | 297 kts | 262° |
| 2026-05-05 03:45 | -6.95765 | 112.63480 | 10003 ft | 296 kts | 262° |
| 2026-05-05 03:46 | -6.96078 | 112.61431 | 9703 ft | 298 kts | 262° |
| 2026-05-05 03:46 | -6.96394 | 112.59369 | 9333 ft | 298 kts | 262° |
| 2026-05-05 03:46 | -6.96710 | 112.57308 | 8989 ft | 297 kts | 262° |
| 2026-05-05 03:46 | -6.97024 | 112.55254 | 8686 ft | 296 kts | 262° |
| 2026-05-05 03:47 | -6.97469 | 112.53239 | 8339 ft | 296 kts | 246° |
| 2026-05-05 03:47 | -6.98568 | 112.51618 | 7986 ft | 294 kts | 220° |
| 2026-05-05 03:47 | -7.00300 | 112.50597 | 7681 ft | 288 kts | 194° |
| 2026-05-05 03:47 | -7.02256 | 112.50384 | 7404 ft | 281 kts | 173° |
| 2026-05-05 03:48 | -7.04196 | 112.50562 | 7107 ft | 279 kts | 173° |
| 2026-05-05 03:48 | -7.06126 | 112.50752 | 6813 ft | 279 kts | 172° |
| 2026-05-05 03:48 | -7.08060 | 112.50954 | 6506 ft | 278 kts | 172° |
| 2026-05-05 03:48 | -7.09988 | 112.51162 | 6195 ft | 278 kts | 172° |
| 2026-05-05 03:49 | -7.11881 | 112.51372 | 5867 ft | 278 kts | 172° |
| 2026-05-05 03:49 | -7.13806 | 112.51588 | 5566 ft | 276 kts | 172° |
| 2026-05-05 03:49 | -7.15716 | 112.51803 | 5271 ft | 275 kts | 172° |
| 2026-05-05 03:49 | -7.17612 | 112.52017 | 4962 ft | 274 kts | 172° |
| 2026-05-05 03:50 | -7.19506 | 112.52232 | 4671 ft | 273 kts | 172° |
| 2026-05-05 03:50 | -7.21303 | 112.52436 | 4390 ft | 272 kts | 172° |
| 2026-05-05 03:50 | -7.23160 | 112.52647 | 4193 ft | 266 kts | 171° |
| 2026-05-05 03:50 | -7.24970 | 112.52852 | 4083 ft | 259 kts | 172° |
| 2026-05-05 03:51 | -7.26742 | 112.53053 | 3944 ft | 253 kts | 171° |
| 2026-05-05 03:51 | -7.28472 | 112.53250 | 3798 ft | 247 kts | 172° |
| 2026-05-05 03:51 | -7.30160 | 112.53443 | 3654 ft | 241 kts | 172° |
| 2026-05-05 03:51 | -7.31781 | 112.53627 | 3550 ft | 233 kts | 171° |
| 2026-05-05 03:52 | -7.33257 | 112.54122 | 3425 ft | 220 kts | 142° |
| 2026-05-05 03:52 | -7.34231 | 112.55257 | 3265 ft | 214 kts | 112° |
| 2026-05-05 03:52 | -7.34524 | 112.56711 | 3227 ft | 215 kts | 95° |
| 2026-05-05 03:52 | -7.34693 | 112.58224 | 3267 ft | 220 kts | 98° |
| 2026-05-05 03:53 | -7.34922 | 112.59746 | 3264 ft | 220 kts | 98° |
| 2026-05-05 03:53 | -7.35170 | 112.61286 | 2973 ft | 225 kts | 99° |
| 2026-05-05 03:53 | -7.35421 | 112.62835 | 2689 ft | 224 kts | 99° |
| 2026-05-05 03:53 | -7.35671 | 112.64380 | 2447 ft | 223 kts | 99° |
| 2026-05-05 03:54 | -7.35913 | 112.65910 | 2236 ft | 221 kts | 99° |
| 2026-05-05 03:54 | -7.36164 | 112.67430 | 1967 ft | 219 kts | 99° |
| 2026-05-05 03:54 | -7.36408 | 112.68942 | 1627 ft | 219 kts | 98° |
| 2026-05-05 03:54 | -7.36647 | 112.70420 | 1358 ft | 207 kts | 99° |
| 2026-05-05 03:55 | -7.36865 | 112.71771 | 1098 ft | 185 kts | 99° |
| 2026-05-05 03:55 | -7.37059 | 112.72970 | 915 ft | 167 kts | 99° |
| 2026-05-05 03:55 | -7.37235 | 112.74068 | 704 ft | 155 kts | 100° |
| 2026-05-05 03:55 | -7.37409 | 112.75082 | 509 ft | 138 kts | 101° |
| 2026-05-05 03:56 | -7.37573 | 112.76061 | 284 ft | 144 kts | 98° |
| 2026-05-05 03:56 | -7.37724 | 112.77062 | 106 ft | 146 kts | 99° |
| 2026-05-05 03:56 | -7.37887 | 112.78061 | 27 ft | 143 kts | 98° |
| 2026-05-05 03:56 | -7.38033 | 112.78993 | 13 ft | 115 kts | 98° |
| 2026-05-05 03:57 | -7.38098 | 112.79407 | 12 ft | 50 kts | 99° |
| 2026-05-05 03:57 | -7.38096 | 112.79651 | 11 ft | 34 kts | 73° |
| 2026-05-05 03:57 | -7.37979 | 112.79782 | 11 ft | 24 kts | 10° |
| 2026-05-05 03:57 | -7.37812 | 112.79806 | 11 ft | 25 kts | 8° |
| 2026-05-05 03:58 | -7.37726 | 112.79747 | 11 ft | 15 kts | 278° |
| 2026-05-05 03:58 | -7.37709 | 112.79633 | 11 ft | 18 kts | 279° |
| 2026-05-05 03:58 | -7.37686 | 112.79505 | 11 ft | 19 kts | 280° |
| 2026-05-05 03:58 | -7.37663 | 112.79364 | 11 ft | 21 kts | 278° |
| 2026-05-05 03:59 | -7.37652 | 112.79297 | 11 ft | 7 kts | 290° |
| 2026-05-05 03:59 | -7.37615 | 112.79285 | 11 ft | 6 kts | 6° |
| 2026-05-05 03:59 | -7.37576 | 112.79291 | 11 ft | 4 kts | 8° |
| 2026-05-05 03:59 | -7.37562 | 112.79293 | 12 ft | 1 kts | 9° |
| 2026-05-05 04:00 | -7.37561 | 112.79293 | 11 ft | 0 kts | 9° |